sensor_id;sensor_type;location;lat;lon;timestamp;pressure;altitude;pressure_sealevel;temperature;humidity
44697;BME280;57264;47.480;19.354;2023-08-31T00:01:06;98408.91;;;13.59;100.00
44697;BME280;57264;47.480;19.354;2023-08-31T00:03:31;98400.25;;;13.64;100.00
44697;BME280;57264;47.480;19.354;2023-08-31T00:05:57;98406.31;;;13.65;100.00
44697;BME280;57264;47.480;19.354;2023-08-31T00:08:22;98412.97;;;13.67;100.00
44697;BME280;57264;47.480;19.354;2023-08-31T00:10:57;98408.41;;;13.63;100.00
44697;BME280;57264;47.480;19.354;2023-08-31T00:13:22;98409.88;;;13.53;100.00
44697;BME280;57264;47.480;19.354;2023-08-31T00:15:48;98407.63;;;13.62;100.00
44697;BME280;57264;47.480;19.354;2023-08-31T00:18:13;98414.13;;;13.54;100.00
44697;BME280;57264;47.480;19.354;2023-08-31T00:20:41;98420.13;;;13.50;100.00
44697;BME280;57264;47.480;19.354;2023-08-31T00:23:06;98415.34;;;13.47;100.00
44697;BME280;57264;47.480;19.354;2023-08-31T00:25:32;98409.59;;;13.33;100.00
44697;BME280;57264;47.480;19.354;2023-08-31T00:27:57;98412.78;;;13.52;100.00
44697;BME280;57264;47.480;19.354;2023-08-31T00:30:29;98406.28;;;13.59;100.00
44697;BME280;57264;47.480;19.354;2023-08-31T00:32:55;98410.50;;;13.60;100.00
44697;BME280;57264;47.480;19.354;2023-08-31T00:35:25;98408.91;;;13.59;100.00
44697;BME280;57264;47.480;19.354;2023-08-31T00:37:52;98418.09;;;13.57;100.00
44697;BME280;57264;47.480;19.354;2023-08-31T00:40:20;98418.06;;;13.52;100.00
44697;BME280;57264;47.480;19.354;2023-08-31T00:42:45;98414.63;;;13.51;100.00
44697;BME280;57264;47.480;19.354;2023-08-31T00:45:11;98410.69;;;13.54;100.00
44697;BME280;57264;47.480;19.354;2023-08-31T00:47:36;98421.00;;;13.55;100.00
44697;BME280;57264;47.480;19.354;2023-08-31T00:50:02;98424.06;;;13.47;100.00
44697;BME280;57264;47.480;19.354;2023-08-31T00:52:27;98424.28;;;13.46;100.00
44697;BME280;57264;47.480;19.354;2023-08-31T00:54:52;98424.38;;;13.34;100.00
44697;BME280;57264;47.480;19.354;2023-08-31T00:57:19;98419.03;;;13.29;100.00
44697;BME280;57264;47.480;19.354;2023-08-31T00:59:44;98422.25;;;13.31;100.00
44697;BME280;57264;47.480;19.354;2023-08-31T01:09:49;98425.50;;;13.38;100.00
44697;BME280;57264;47.480;19.354;2023-08-31T01:15:09;98435.22;;;13.54;100.00
44697;BME280;57264;47.480;19.354;2023-08-31T01:17:57;98432.94;;;13.63;100.00
44697;BME280;57264;47.480;19.354;2023-08-31T01:21:05;98424.31;;;13.68;100.00
44697;BME280;57264;47.480;19.354;2023-08-31T01:23:10;98432.75;;;13.70;100.00
44697;BME280;57264;47.480;19.354;2023-08-31T01:25:36;98432.63;;;13.81;100.00
44697;BME280;57264;47.480;19.354;2023-08-31T01:28:02;98435.66;;;13.90;100.00
44697;BME280;57264;47.480;19.354;2023-08-31T01:30:31;98434.91;;;13.94;100.00
44697;BME280;57264;47.480;19.354;2023-08-31T01:32:57;98431.84;;;14.02;100.00
44697;BME280;57264;47.480;19.354;2023-08-31T01:35:22;98426.56;;;14.02;100.00
44697;BME280;57264;47.480;19.354;2023-08-31T01:37:53;98438.00;;;14.13;100.00
44697;BME280;57264;47.480;19.354;2023-08-31T01:40:22;98439.84;;;14.13;100.00
44697;BME280;57264;47.480;19.354;2023-08-31T01:42:48;98437.19;;;14.07;100.00
44697;BME280;57264;47.480;19.354;2023-08-31T01:45:19;98438.16;;;14.01;100.00
44697;BME280;57264;47.480;19.354;2023-08-31T01:47:45;98441.34;;;14.03;100.00
44697;BME280;57264;47.480;19.354;2023-08-31T01:50:11;98443.72;;;14.05;100.00
44697;BME280;57264;47.480;19.354;2023-08-31T01:52:36;98436.31;;;14.02;100.00
44697;BME280;57264;47.480;19.354;2023-08-31T01:55:02;98438.88;;;13.97;100.00
44697;BME280;57264;47.480;19.354;2023-08-31T01:57:28;98445.22;;;13.96;100.00
44697;BME280;57264;47.480;19.354;2023-08-31T01:59:53;98438.88;;;13.97;100.00
44697;BME280;57264;47.480;19.354;2023-08-31T02:02:19;98438.66;;;13.98;100.00
44697;BME280;57264;47.480;19.354;2023-08-31T02:04:44;98426.00;;;14.00;100.00
44697;BME280;57264;47.480;19.354;2023-08-31T02:07:09;98432.03;;;13.96;100.00
44697;BME280;57264;47.480;19.354;2023-08-31T02:09:35;98426.00;;;14.00;100.00
44697;BME280;57264;47.480;19.354;2023-08-31T02:12:00;98436.56;;;14.00;100.00
44697;BME280;57264;47.480;19.354;2023-08-31T02:14:26;98438.16;;;14.01;100.00
44697;BME280;57264;47.480;19.354;2023-08-31T02:16:51;98433.91;;;14.00;100.00
44697;BME280;57264;47.480;19.354;2023-08-31T02:19:16;98444.22;;;14.02;100.00
44697;BME280;57264;47.480;19.354;2023-08-31T02:21:42;98447.44;;;14.04;100.00
44697;BME280;57264;47.480;19.354;2023-08-31T02:24:07;98451.91;;;14.03;100.00
44697;BME280;57264;47.480;19.354;2023-08-31T02:26:34;98443.50;;;14.06;100.00
44697;BME280;57264;47.480;19.354;2023-08-31T02:29:00;98443.00;;;14.10;100.00
44697;BME280;57264;47.480;19.354;2023-08-31T02:31:25;98450.91;;;14.10;100.00
44697;BME280;57264;47.480;19.354;2023-08-31T02:33:51;98439.84;;;14.13;100.00
44697;BME280;57264;47.480;19.354;2023-08-31T02:36:17;98439.13;;;14.17;100.00
44697;BME280;57264;47.480;19.354;2023-08-31T02:38:45;98435.69;;;14.17;100.00
44697;BME280;57264;47.480;19.354;2023-08-31T02:41:11;98445.91;;;14.08;100.00
44697;BME280;57264;47.480;19.354;2023-08-31T02:43:36;98441.38;;;14.08;100.00
44697;BME280;57264;47.480;19.354;2023-08-31T02:46:02;98446.66;;;14.08;100.00
44697;BME280;57264;47.480;19.354;2023-08-31T02:48:28;98443.19;;;14.03;100.00
44697;BME280;57264;47.480;19.354;2023-08-31T02:50:56;98446.34;;;14.00;100.00
44697;BME280;57264;47.480;19.354;2023-08-31T02:53:21;98441.78;;;13.95;100.00
44697;BME280;57264;47.480;19.354;2023-08-31T02:55:47;98446.19;;;13.90;100.00
44697;BME280;57264;47.480;19.354;2023-08-31T02:58:12;98440.38;;;13.88;100.00
44697;BME280;57264;47.480;19.354;2023-08-31T03:00:37;98448.47;;;13.81;100.00
44697;BME280;57264;47.480;19.354;2023-08-31T03:03:07;98452.63;;;13.77;100.00
44697;BME280;57264;47.480;19.354;2023-08-31T03:05:33;98451.78;;;13.72;100.00
44697;BME280;57264;47.480;19.354;2023-08-31T03:07:59;98453.31;;;13.68;100.00
44697;BME280;57264;47.480;19.354;2023-08-31T03:10:24;98458.81;;;13.66;100.00
44697;BME280;57264;47.480;19.354;2023-08-31T03:12:49;98449.81;;;13.62;100.00
44697;BME280;57264;47.480;19.354;2023-08-31T03:15:15;98457.50;;;13.64;100.00
44697;BME280;57264;47.480;19.354;2023-08-31T03:17:40;98463.78;;;13.63;100.00
44697;BME280;57264;47.480;19.354;2023-08-31T03:20:06;98461.16;;;13.63;100.00
44697;BME280;57264;47.480;19.354;2023-08-31T03:22:31;98455.56;;;13.59;100.00
44697;BME280;57264;47.480;19.354;2023-08-31T03:24:56;98451.56;;;13.56;100.00
44697;BME280;57264;47.480;19.354;2023-08-31T03:27:22;98454.97;;;13.52;100.00
44697;BME280;57264;47.480;19.354;2023-08-31T03:29:47;98454.22;;;13.56;100.00
44697;BME280;57264;47.480;19.354;2023-08-31T03:32:13;98451.88;;;13.60;100.00
44697;BME280;57264;47.480;19.354;2023-08-31T03:34:39;98461.47;;;13.66;100.00
44697;BME280;57264;47.480;19.354;2023-08-31T03:37:04;98462.81;;;13.69;100.00
44697;BME280;57264;47.480;19.354;2023-08-31T03:39:29;98463.22;;;13.60;100.00
44697;BME280;57264;47.480;19.354;2023-08-31T03:41:55;98466.94;;;13.59;100.00
44697;BME280;57264;47.480;19.354;2023-08-31T03:44:21;98462.13;;;13.56;100.00
44697;BME280;57264;47.480;19.354;2023-08-31T03:46:47;98466.78;;;13.49;100.00
44697;BME280;57264;47.480;19.354;2023-08-31T03:49:12;98470.94;;;13.45;100.00
44697;BME280;57264;47.480;19.354;2023-08-31T03:51:37;98471.44;;;13.42;100.00
44697;BME280;57264;47.480;19.354;2023-08-31T03:54:03;98473.50;;;13.40;100.00
44697;BME280;57264;47.480;19.354;2023-08-31T03:56:28;98475.91;;;13.42;100.00
44697;BME280;57264;47.480;19.354;2023-08-31T03:58:54;98482.38;;;13.34;100.00
44697;BME280;57264;47.480;19.354;2023-08-31T04:01:19;98480.22;;;13.31;100.00
44697;BME280;57264;47.480;19.354;2023-08-31T04:03:44;98481.25;;;13.30;100.00
44697;BME280;57264;47.480;19.354;2023-08-31T04:06:10;98485.56;;;13.36;100.00
44697;BME280;57264;47.480;19.354;2023-08-31T04:08:35;98486.63;;;13.35;100.00
44697;BME280;57264;47.480;19.354;2023-08-31T04:11:00;98488.44;;;13.35;100.00
44697;BME280;57264;47.480;19.354;2023-08-31T04:13:26;98487.06;;;13.32;100.00
44697;BME280;57264;47.480;19.354;2023-08-31T04:15:54;98492.50;;;13.42;100.00
44697;BME280;57264;47.480;19.354;2023-08-31T04:18:21;98485.72;;;13.46;100.00
44697;BME280;57264;47.480;19.354;2023-08-31T04:20:50;98489.97;;;13.47;100.00
44697;BME280;57264;47.480;19.354;2023-08-31T04:23:18;98491.91;;;13.57;100.00
44697;BME280;57264;47.480;19.354;2023-08-31T04:25:44;98488.56;;;13.62;100.00
44697;BME280;57264;47.480;19.354;2023-08-31T04:28:09;98496.88;;;13.70;100.00
44697;BME280;57264;47.480;19.354;2023-08-31T04:30:35;98500.72;;;13.84;100.00
44697;BME280;57264;47.480;19.354;2023-08-31T04:33:00;98507.25;;;13.98;100.00
44697;BME280;57264;47.480;19.354;2023-08-31T04:35:26;98511.06;;;14.07;100.00
44697;BME280;57264;47.480;19.354;2023-08-31T04:37:52;98513.75;;;14.13;100.00
44697;BME280;57264;47.480;19.354;2023-08-31T04:40:17;98512.56;;;14.20;100.00
44697;BME280;57264;47.480;19.354;2023-08-31T04:42:42;98516.91;;;14.31;99.90
44697;BME280;57264;47.480;19.354;2023-08-31T04:45:08;98515.91;;;14.37;98.78
44697;BME280;57264;47.480;19.354;2023-08-31T04:47:35;98518.19;;;14.50;97.82
44697;BME280;57264;47.480;19.354;2023-08-31T04:50:01;98521.53;;;14.68;97.56
44697;BME280;57264;47.480;19.354;2023-08-31T04:52:26;98524.25;;;15.05;94.11
44697;BME280;57264;47.480;19.354;2023-08-31T04:54:52;98529.50;;;15.63;91.45
44697;BME280;57264;47.480;19.354;2023-08-31T04:57:17;98523.66;;;15.29;91.82
44697;BME280;57264;47.480;19.354;2023-08-31T04:59:42;98531.56;;;15.24;92.46
44697;BME280;57264;47.480;19.354;2023-08-31T05:02:08;98532.47;;;15.77;89.91
44697;BME280;57264;47.480;19.354;2023-08-31T05:04:33;98537.09;;;16.02;87.95
44697;BME280;57264;47.480;19.354;2023-08-31T05:06:58;98537.22;;;16.27;86.54
44697;BME280;57264;47.480;19.354;2023-08-31T05:09:24;98542.72;;;16.82;83.13
44697;BME280;57264;47.480;19.354;2023-08-31T05:11:50;98537.47;;;17.28;80.01
44697;BME280;57264;47.480;19.354;2023-08-31T05:14:15;98541.38;;;17.86;77.98
44697;BME280;57264;47.480;19.354;2023-08-31T05:16:40;98546.72;;;17.66;78.42
44697;BME280;57264;47.480;19.354;2023-08-31T05:19:06;98559.19;;;17.30;80.34
44697;BME280;57264;47.480;19.354;2023-08-31T05:21:31;98568.97;;;16.94;81.64
44697;BME280;57264;47.480;19.354;2023-08-31T05:23:56;98573.69;;;16.67;83.57
44697;BME280;57264;47.480;19.354;2023-08-31T05:26:22;98566.16;;;16.38;85.10
44697;BME280;57264;47.480;19.354;2023-08-31T05:28:47;98575.41;;;15.89;87.53
44697;BME280;57264;47.480;19.354;2023-08-31T05:31:13;98569.03;;;15.80;88.20
44697;BME280;57264;47.480;19.354;2023-08-31T05:33:38;98573.56;;;15.84;88.50
44697;BME280;57264;47.480;19.354;2023-08-31T05:36:03;98569.84;;;15.80;88.35
44697;BME280;57264;47.480;19.354;2023-08-31T05:38:29;98566.03;;;15.66;88.94
44697;BME280;57264;47.480;19.354;2023-08-31T05:40:56;98564.81;;;15.84;88.33
44697;BME280;57264;47.480;19.354;2023-08-31T05:43:28;98574.66;;;15.88;87.62
44697;BME280;57264;47.480;19.354;2023-08-31T05:45:53;98571.69;;;15.85;88.11
44697;BME280;57264;47.480;19.354;2023-08-31T05:48:18;98570.59;;;17.51;79.20
44697;BME280;57264;47.480;19.354;2023-08-31T05:50:44;98567.28;;;18.30;76.92
44697;BME280;57264;47.480;19.354;2023-08-31T05:53:09;98567.69;;;18.62;74.34
44697;BME280;57264;47.480;19.354;2023-08-31T05:55:35;98566.25;;;18.85;73.08
44697;BME280;57264;47.480;19.354;2023-08-31T05:58:00;98575.16;;;18.65;74.37
44697;BME280;57264;47.480;19.354;2023-08-31T06:00:26;98581.41;;;18.25;74.82
44697;BME280;57264;47.480;19.354;2023-08-31T06:02:51;98592.91;;;17.85;75.93
44697;BME280;57264;47.480;19.354;2023-08-31T06:05:17;98588.63;;;17.18;78.11
44697;BME280;57264;47.480;19.354;2023-08-31T06:07:43;98600.34;;;17.33;77.76
44697;BME280;57264;47.480;19.354;2023-08-31T06:10:08;98605.13;;;17.66;76.53
44697;BME280;57264;47.480;19.354;2023-08-31T06:12:34;98601.44;;;18.72;71.93
44697;BME280;57264;47.480;19.354;2023-08-31T06:14:59;98600.47;;;19.01;71.27
44697;BME280;57264;47.480;19.354;2023-08-31T06:17:25;98608.97;;;18.34;72.50
44697;BME280;57264;47.480;19.354;2023-08-31T06:19:50;98607.88;;;18.55;71.29
44697;BME280;57264;47.480;19.354;2023-08-31T06:22:16;98603.97;;;18.33;71.86
44697;BME280;57264;47.480;19.354;2023-08-31T06:24:41;98606.50;;;18.68;72.13
44697;BME280;57264;47.480;19.354;2023-08-31T06:27:07;98609.53;;;18.95;70.44
44697;BME280;57264;47.480;19.354;2023-08-31T06:29:32;98616.09;;;18.64;71.13
44697;BME280;57264;47.480;19.354;2023-08-31T06:31:58;98610.69;;;18.79;70.81
44697;BME280;57264;47.480;19.354;2023-08-31T06:34:23;98612.63;;;18.68;71.42
44697;BME280;57264;47.480;19.354;2023-08-31T06:36:49;98617.97;;;18.48;70.83
44697;BME280;57264;47.480;19.354;2023-08-31T06:39:14;98613.84;;;18.12;71.79
44697;BME280;57264;47.480;19.354;2023-08-31T06:41:43;98625.22;;;18.22;71.74
44697;BME280;57264;47.480;19.354;2023-08-31T06:44:09;98629.56;;;17.88;72.66
44697;BME280;57264;47.480;19.354;2023-08-31T06:46:34;98637.53;;;17.73;74.09
44697;BME280;57264;47.480;19.354;2023-08-31T06:49:06;98631.13;;;17.99;72.77
44697;BME280;57264;47.480;19.354;2023-08-31T06:51:32;98637.16;;;18.40;71.54
44697;BME280;57264;47.480;19.354;2023-08-31T06:53:57;98638.41;;;18.68;70.23
44697;BME280;57264;47.480;19.354;2023-08-31T06:56:30;98631.41;;;19.31;68.32
44697;BME280;57264;47.480;19.354;2023-08-31T06:58:55;98639.59;;;19.40;67.17
44697;BME280;57264;47.480;19.354;2023-08-31T07:01:21;98626.59;;;19.72;65.72
44697;BME280;57264;47.480;19.354;2023-08-31T07:03:46;98631.19;;;19.95;66.05
44697;BME280;57264;47.480;19.354;2023-08-31T07:06:11;98623.56;;;20.60;65.08
44697;BME280;57264;47.480;19.354;2023-08-31T07:08:37;98620.19;;;20.31;64.62
44697;BME280;57264;47.480;19.354;2023-08-31T07:11:05;98634.78;;;20.62;65.62
44697;BME280;57264;47.480;19.354;2023-08-31T07:13:31;98632.81;;;19.91;65.38
44697;BME280;57264;47.480;19.354;2023-08-31T07:15:56;98639.84;;;19.38;66.41
44697;BME280;57264;47.480;19.354;2023-08-31T07:18:22;98647.19;;;19.61;64.64
44697;BME280;57264;47.480;19.354;2023-08-31T07:20:47;98646.94;;;19.92;65.74
44697;BME280;57264;47.480;19.354;2023-08-31T07:23:12;98647.53;;;19.50;66.93
44697;BME280;57264;47.480;19.354;2023-08-31T07:25:38;98649.75;;;19.38;65.73
44697;BME280;57264;47.480;19.354;2023-08-31T07:28:03;98648.75;;;19.96;64.20
44697;BME280;57264;47.480;19.354;2023-08-31T07:30:32;98646.69;;;20.46;64.28
44697;BME280;57264;47.480;19.354;2023-08-31T07:32:58;98648.16;;;20.33;62.84
44697;BME280;57264;47.480;19.354;2023-08-31T07:35:27;98653.03;;;20.74;61.13
44697;BME280;57264;47.480;19.354;2023-08-31T07:37:53;98658.66;;;20.20;63.59
44697;BME280;57264;47.480;19.354;2023-08-31T07:40:18;98651.00;;;20.42;61.74
44697;BME280;57264;47.480;19.354;2023-08-31T07:42:44;98666.88;;;19.94;62.50
44697;BME280;57264;47.480;19.354;2023-08-31T07:45:09;98663.13;;;20.29;62.37
44697;BME280;57264;47.480;19.354;2023-08-31T07:47:35;98668.69;;;20.99;60.99
44697;BME280;57264;47.480;19.354;2023-08-31T07:50:00;98670.91;;;21.53;59.52
44697;BME280;57264;47.480;19.354;2023-08-31T07:52:26;98675.88;;;20.32;63.49
44697;BME280;57264;47.480;19.354;2023-08-31T07:54:52;98675.53;;;20.86;60.50
44697;BME280;57264;47.480;19.354;2023-08-31T07:57:19;98681.06;;;20.47;61.98
44697;BME280;57264;47.480;19.354;2023-08-31T07:59:44;98674.16;;;20.18;61.47
44697;BME280;57264;47.480;19.354;2023-08-31T08:02:10;98688.22;;;20.18;62.29
44697;BME280;57264;47.480;19.354;2023-08-31T08:04:35;98684.38;;;20.05;63.67
44697;BME280;57264;47.480;19.354;2023-08-31T08:07:00;98686.28;;;20.00;61.38
44697;BME280;57264;47.480;19.354;2023-08-31T08:09:26;98695.97;;;20.72;61.41
44697;BME280;57264;47.480;19.354;2023-08-31T08:11:51;98693.75;;;20.27;60.29
44697;BME280;57264;47.480;19.354;2023-08-31T08:14:17;98701.66;;;19.74;61.29
44697;BME280;57264;47.480;19.354;2023-08-31T08:16:42;98703.72;;;19.38;64.54
44697;BME280;57264;47.480;19.354;2023-08-31T08:19:08;98694.91;;;19.53;65.00
44697;BME280;57264;47.480;19.354;2023-08-31T08:21:33;98699.88;;;19.65;64.82
44697;BME280;57264;47.480;19.354;2023-08-31T08:23:59;98699.38;;;19.96;65.13
44697;BME280;57264;47.480;19.354;2023-08-31T08:26:27;98701.75;;;20.32;62.47
44697;BME280;57264;47.480;19.354;2023-08-31T08:28:52;98705.28;;;20.75;60.68
44697;BME280;57264;47.480;19.354;2023-08-31T08:31:18;98699.31;;;20.83;61.23
44697;BME280;57264;47.480;19.354;2023-08-31T08:33:43;98695.19;;;21.38;59.53
44697;BME280;57264;47.480;19.354;2023-08-31T08:36:11;98701.41;;;20.38;59.16
44697;BME280;57264;47.480;19.354;2023-08-31T08:38:36;98698.69;;;22.22;57.17
44697;BME280;57264;47.480;19.354;2023-08-31T08:41:05;98711.69;;;21.21;56.64
44697;BME280;57264;47.480;19.354;2023-08-31T08:43:34;98710.16;;;20.91;58.65
44697;BME280;57264;47.480;19.354;2023-08-31T08:46:06;98707.44;;;20.73;58.27
44697;BME280;57264;47.480;19.354;2023-08-31T08:48:33;98712.38;;;20.84;59.24
44697;BME280;57264;47.480;19.354;2023-08-31T08:51:00;98712.41;;;21.45;57.63
44697;BME280;57264;47.480;19.354;2023-08-31T08:53:26;98713.03;;;21.19;57.84
44697;BME280;57264;47.480;19.354;2023-08-31T08:55:52;98721.94;;;21.09;57.76
44697;BME280;57264;47.480;19.354;2023-08-31T08:58:17;98721.22;;;20.80;57.00
44697;BME280;57264;47.480;19.354;2023-08-31T09:00:42;98720.53;;;20.93;57.16
44697;BME280;57264;47.480;19.354;2023-08-31T09:03:08;98723.03;;;21.69;55.30
44697;BME280;57264;47.480;19.354;2023-08-31T09:05:33;98731.53;;;21.71;56.68
44697;BME280;57264;47.480;19.354;2023-08-31T09:08:03;98736.16;;;21.05;57.59
44697;BME280;57264;47.480;19.354;2023-08-31T09:10:39;98741.44;;;21.10;57.64
44697;BME280;57264;47.480;19.354;2023-08-31T09:13:05;98735.22;;;20.67;57.21
44697;BME280;57264;47.480;19.354;2023-08-31T09:16:03;98742.97;;;20.92;58.52
44697;BME280;57264;47.480;19.354;2023-08-31T09:18:23;98743.75;;;20.92;57.20
44697;BME280;57264;47.480;19.354;2023-08-31T09:20:49;98748.47;;;21.43;56.32
44697;BME280;57264;47.480;19.354;2023-08-31T09:23:15;98747.69;;;21.24;56.67
44697;BME280;57264;47.480;19.354;2023-08-31T09:25:41;98755.53;;;21.15;56.70
44697;BME280;57264;47.480;19.354;2023-08-31T09:28:07;98758.41;;;21.61;54.24
44697;BME280;57264;47.480;19.354;2023-08-31T09:30:36;98750.28;;;21.47;51.93
44697;BME280;57264;47.480;19.354;2023-08-31T09:33:05;98757.97;;;21.73;52.05
44697;BME280;57264;47.480;19.354;2023-08-31T09:35:34;98760.63;;;22.10;52.51
44697;BME280;57264;47.480;19.354;2023-08-31T09:38:03;98752.44;;;22.66;52.62
44697;BME280;57264;47.480;19.354;2023-08-31T09:40:32;98755.69;;;22.50;52.10
44697;BME280;57264;47.480;19.354;2023-08-31T09:42:57;98751.94;;;22.51;52.53
44697;BME280;57264;47.480;19.354;2023-08-31T09:45:29;98758.16;;;22.60;52.40
44697;BME280;57264;47.480;19.354;2023-08-31T09:47:58;98756.06;;;22.11;52.52
44697;BME280;57264;47.480;19.354;2023-08-31T09:50:24;98755.97;;;22.48;51.24
44697;BME280;57264;47.480;19.354;2023-08-31T09:52:51;98762.50;;;22.42;50.49
44697;BME280;57264;47.480;19.354;2023-08-31T09:55:17;98757.66;;;22.12;51.93
44697;BME280;57264;47.480;19.354;2023-08-31T09:57:44;98760.16;;;22.68;52.75
44697;BME280;57264;47.480;19.354;2023-08-31T10:00:10;98762.88;;;22.95;52.27
44697;BME280;57264;47.480;19.354;2023-08-31T10:02:36;98766.91;;;22.65;51.89
44697;BME280;57264;47.480;19.354;2023-08-31T10:05:01;98767.25;;;22.45;51.88
44697;BME280;57264;47.480;19.354;2023-08-31T10:07:27;98761.28;;;22.80;48.17
44697;BME280;57264;47.480;19.354;2023-08-31T10:09:53;98761.84;;;22.18;49.01
44697;BME280;57264;47.480;19.354;2023-08-31T10:12:20;98766.53;;;23.13;47.67
44697;BME280;57264;47.480;19.354;2023-08-31T10:14:46;98773.78;;;23.12;46.16
44697;BME280;57264;47.480;19.354;2023-08-31T10:17:14;98767.75;;;22.15;47.34
44697;BME280;57264;47.480;19.354;2023-08-31T10:19:40;98771.41;;;22.37;47.71
44697;BME280;57264;47.480;19.354;2023-08-31T10:22:05;98767.41;;;22.35;47.83
44697;BME280;57264;47.480;19.354;2023-08-31T10:25:16;98771.28;;;22.29;49.93
44697;BME280;57264;47.480;19.354;2023-08-31T10:27:17;98782.28;;;22.09;48.04
44697;BME280;57264;47.480;19.354;2023-08-31T10:29:42;98777.53;;;22.06;50.69
44697;BME280;57264;47.480;19.354;2023-08-31T10:32:08;98777.88;;;22.50;47.66
44697;BME280;57264;47.480;19.354;2023-08-31T10:34:36;98782.97;;;22.33;45.26
44697;BME280;57264;47.480;19.354;2023-08-31T10:37:02;98783.28;;;22.91;44.94
44697;BME280;57264;47.480;19.354;2023-08-31T10:39:44;98789.19;;;22.28;45.88
44697;BME280;57264;47.480;19.354;2023-08-31T10:42:09;98779.38;;;22.24;46.61
44697;BME280;57264;47.480;19.354;2023-08-31T10:44:36;98785.97;;;22.13;46.65
44697;BME280;57264;47.480;19.354;2023-08-31T10:47:05;98789.38;;;22.18;46.37
44697;BME280;57264;47.480;19.354;2023-08-31T10:49:33;98786.31;;;22.57;45.78
44697;BME280;57264;47.480;19.354;2023-08-31T10:52:17;98793.28;;;23.40;46.64
44697;BME280;57264;47.480;19.354;2023-08-31T10:54:45;98795.38;;;23.16;47.75
44697;BME280;57264;47.480;19.354;2023-08-31T10:57:11;98798.75;;;22.80;50.81
44697;BME280;57264;47.480;19.354;2023-08-31T10:59:42;98795.59;;;23.06;50.83
44697;BME280;57264;47.480;19.354;2023-08-31T11:02:08;98800.41;;;22.63;50.29
44697;BME280;57264;47.480;19.354;2023-08-31T11:07:18;98808.44;;;22.44;51.76
44697;BME280;57264;47.480;19.354;2023-08-31T11:09:44;98815.00;;;22.19;50.86
44697;BME280;57264;47.480;19.354;2023-08-31T11:12:10;98821.88;;;22.25;50.44
44697;BME280;57264;47.480;19.354;2023-08-31T11:14:36;98820.19;;;21.73;51.81
44697;BME280;57264;47.480;19.354;2023-08-31T11:17:01;98824.47;;;22.12;49.99
44697;BME280;57264;47.480;19.354;2023-08-31T11:19:29;98824.03;;;22.23;48.98
44697;BME280;57264;47.480;19.354;2023-08-31T11:21:54;98832.00;;;22.10;49.54
44697;BME280;57264;47.480;19.354;2023-08-31T11:24:20;98834.16;;;22.26;49.16
44697;BME280;57264;47.480;19.354;2023-08-31T11:26:49;98834.94;;;22.27;49.33
44697;BME280;57264;47.480;19.354;2023-08-31T11:29:15;98835.38;;;22.34;49.58
44697;BME280;57264;47.480;19.354;2023-08-31T11:31:40;98841.94;;;22.23;51.57
44697;BME280;57264;47.480;19.354;2023-08-31T11:34:06;98835.28;;;22.39;52.20
44697;BME280;57264;47.480;19.354;2023-08-31T11:36:34;98836.50;;;22.47;50.99
44697;BME280;57264;47.480;19.354;2023-08-31T11:39:00;98839.75;;;23.22;50.09
44697;BME280;57264;47.480;19.354;2023-08-31T11:41:29;98827.78;;;22.87;51.41
44697;BME280;57264;47.480;19.354;2023-08-31T11:43:55;98827.88;;;22.68;51.89
44697;BME280;57264;47.480;19.354;2023-08-31T11:46:21;98835.41;;;22.48;52.82
44697;BME280;57264;47.480;19.354;2023-08-31T11:48:47;98835.75;;;22.92;51.61
44697;BME280;57264;47.480;19.354;2023-08-31T11:51:13;98835.81;;;22.87;53.25
44697;BME280;57264;47.480;19.354;2023-08-31T11:53:38;98829.91;;;23.17;52.51
44697;BME280;57264;47.480;19.354;2023-08-31T11:56:04;98831.00;;;23.16;53.04
44697;BME280;57264;47.480;19.354;2023-08-31T11:58:29;98844.16;;;22.85;52.63
44697;BME280;57264;47.480;19.354;2023-08-31T12:00:58;98831.28;;;24.05;50.89
44697;BME280;57264;47.480;19.354;2023-08-31T12:03:24;98837.53;;;23.65;50.72
44697;BME280;57264;47.480;19.354;2023-08-31T12:05:50;98848.88;;;23.35;50.75
44697;BME280;57264;47.480;19.354;2023-08-31T12:08:23;98836.00;;;23.50;51.63
44697;BME280;57264;47.480;19.354;2023-08-31T12:10:49;98844.09;;;23.18;50.94
44697;BME280;57264;47.480;19.354;2023-08-31T12:13:14;98845.59;;;23.10;51.58
44697;BME280;57264;47.480;19.354;2023-08-31T12:15:39;98842.19;;;23.05;52.04
44697;BME280;57264;47.480;19.354;2023-08-31T12:20:33;98840.59;;;23.04;51.71
44697;BME280;57264;47.480;19.354;2023-08-31T12:23:07;98842.66;;;22.79;52.89
44697;BME280;57264;47.480;19.354;2023-08-31T12:25:34;98844.13;;;23.59;49.89
44697;BME280;57264;47.480;19.354;2023-08-31T12:28:00;98838.88;;;23.90;50.60
44697;BME280;57264;47.480;19.354;2023-08-31T12:30:25;98836.75;;;24.36;49.56
44697;BME280;57264;47.480;19.354;2023-08-31T12:32:51;98836.41;;;23.93;46.04
44697;BME280;57264;47.480;19.354;2023-08-31T12:35:17;98841.91;;;23.20;48.37
44697;BME280;57264;47.480;19.354;2023-08-31T12:37:43;98837.91;;;23.72;47.61
44697;BME280;57264;47.480;19.354;2023-08-31T12:40:08;98837.56;;;23.51;49.13
44697;BME280;57264;47.480;19.354;2023-08-31T12:42:35;98838.34;;;23.24;48.63
44697;BME280;57264;47.480;19.354;2023-08-31T12:45:01;98842.78;;;23.02;48.90
44697;BME280;57264;47.480;19.354;2023-08-31T12:47:26;98842.69;;;22.61;51.34
44697;BME280;57264;47.480;19.354;2023-08-31T12:49:52;98844.50;;;23.25;49.87
44697;BME280;57264;47.480;19.354;2023-08-31T12:52:17;98843.22;;;23.50;48.80
44697;BME280;57264;47.480;19.354;2023-08-31T12:54:42;98838.53;;;24.05;50.41
44697;BME280;57264;47.480;19.354;2023-08-31T12:57:08;98843.28;;;23.72;47.14